createdAt,value
2023-05-22T00:01:46.872Z,100081.03
2023-05-22T00:04:14.023Z,100082.06
2023-05-22T00:06:43.930Z,100084.19
2023-05-22T00:09:11.091Z,100086.38
2023-05-22T00:11:38.058Z,100081.91
2023-05-22T00:14:05.000Z,100091.66
2023-05-22T00:16:32.122Z,100089.63
2023-05-22T00:18:59.274Z,100090.38
2023-05-22T00:21:27.892Z,100080.91
2023-05-22T00:23:54.578Z,100068.22
2023-05-22T00:26:23.456Z,100074.66
2023-05-22T00:28:50.168Z,100071.94
2023-05-22T00:31:16.924Z,100065.16
2023-05-22T00:33:43.620Z,100061.34
2023-05-22T00:36:10.250Z,100062.59
2023-05-22T00:38:37.919Z,100064.47
2023-05-22T00:41:06.496Z,100072.88
2023-05-22T00:43:34.163Z,100075.16
2023-05-22T00:46:01.040Z,100080.84
2023-05-22T00:48:27.888Z,100073.09
2023-05-22T00:50:55.308Z,100083.47
2023-05-22T00:53:24.202Z,100075.19
2023-05-22T00:55:52.349Z,100083.56
2023-05-22T00:58:19.037Z,100081.25
2023-05-22T01:00:49.023Z,100075.38
2023-05-22T01:03:16.225Z,100078.41
2023-05-22T01:05:43.694Z,100082.50
2023-05-22T01:08:10.987Z,100092.88
2023-05-22T01:10:39.884Z,100098.97
2023-05-22T01:13:39.061Z,100105.66
2023-05-22T01:16:35.411Z,100098.47
2023-05-22T01:19:19.056Z,100097.69
2023-05-22T01:22:05.076Z,100097.06
2023-05-22T01:24:36.264Z,100112.59
2023-05-22T01:27:35.363Z,100109.63
2023-05-22T01:30:39.621Z,100113.28
2023-05-22T01:33:08.417Z,100115.59
2023-05-22T01:35:39.401Z,100117.25
2023-05-22T01:38:07.784Z,100120.13
2023-05-22T01:40:34.820Z,100123.81
2023-05-22T01:43:03.982Z,100127.81
2023-05-22T01:45:31.799Z,100130.44
2023-05-22T01:47:58.954Z,100130.09
2023-05-22T01:50:26.674Z,100128.00
2023-05-22T01:53:33.008Z,100127.06
2023-05-22T01:56:34.686Z,100118.44
2023-05-22T01:59:26.074Z,100117.72
2023-05-22T02:01:54.608Z,100117.03
2023-05-22T02:04:23.584Z,100121.06
2023-05-22T02:06:53.510Z,100120.97
2023-05-22T02:09:23.543Z,100111.94
2023-05-22T02:11:51.491Z,100105.72
2023-05-22T02:14:18.879Z,100104.06
2023-05-22T02:16:47.747Z,100097.19
2023-05-22T02:19:15.444Z,100103.28
2023-05-22T02:21:42.310Z,100100.72
2023-05-22T02:24:09.223Z,100097.59
2023-05-22T02:26:36.001Z,100104.75
2023-05-22T02:29:02.801Z,100105.75
2023-05-22T02:31:29.806Z,100105.03
2023-05-22T02:33:56.722Z,100098.94
2023-05-22T02:36:23.404Z,100100.44
2023-05-22T02:38:50.065Z,100097.31
2023-05-22T02:41:16.678Z,100090.47
2023-05-22T02:43:43.483Z,100087.06
2023-05-22T02:46:10.351Z,100083.50
2023-05-22T02:48:37.020Z,100083.03
2023-05-22T02:51:03.778Z,100081.13
2023-05-22T02:53:30.446Z,100083.69
2023-05-22T02:55:59.056Z,100083.22
2023-05-22T02:58:25.949Z,100085.25
2023-05-22T03:00:53.817Z,100075.09
2023-05-22T03:03:20.660Z,100076.91
2023-05-22T03:05:47.480Z,100077.75
2023-05-22T03:08:16.063Z,100071.78
2023-05-22T03:10:42.729Z,100064.72
2023-05-22T03:13:09.426Z,100068.28
2023-05-22T03:15:36.106Z,100062.53
2023-05-22T03:18:03.121Z,100066.66
2023-05-22T03:20:30.054Z,100069.38
2023-05-22T03:22:56.644Z,100058.47
2023-05-22T03:25:23.317Z,100061.03
2023-05-22T03:27:50.036Z,100056.25
2023-05-22T03:30:16.682Z,100057.84
2023-05-22T03:32:43.473Z,100057.56
2023-05-22T03:35:10.346Z,100065.09
2023-05-22T03:37:37.074Z,100062.34
2023-05-22T03:40:04.924Z,100067.66
2023-05-22T03:42:31.813Z,100070.28
2023-05-22T03:44:58.426Z,100069.34
2023-05-22T03:47:25.145Z,100070.06
2023-05-22T03:49:51.899Z,100077.84
2023-05-22T03:52:18.650Z,100068.13
2023-05-22T03:54:45.482Z,100069.53
2023-05-22T03:57:12.175Z,100074.47
2023-05-22T03:59:38.834Z,100062.41
2023-05-22T04:02:05.693Z,100070.47
2023-05-22T04:04:34.175Z,100069.47
2023-05-22T04:07:02.803Z,100068.94
2023-05-22T04:09:32.572Z,100070.44
2023-05-22T04:11:59.243Z,100063.50
2023-05-22T04:14:26.313Z,100061.72
2023-05-22T04:16:53.108Z,100061.56
2023-05-22T04:19:19.937Z,100054.28
2023-05-22T04:21:47.732Z,100061.72
2023-05-22T04:24:14.409Z,100064.41
2023-05-22T04:26:42.574Z,100075.53
2023-05-22T04:29:10.598Z,100079.41
2023-05-22T04:31:37.598Z,100080.34
2023-05-22T04:34:05.347Z,100081.00
2023-05-22T04:36:31.997Z,100077.38
2023-05-22T04:39:00.464Z,100079.75
2023-05-22T04:41:28.003Z,100095.28
2023-05-22T04:43:54.866Z,100081.41
2023-05-22T04:46:21.685Z,100075.47
2023-05-22T04:48:50.746Z,100077.78
2023-05-22T04:51:17.436Z,100099.00
2023-05-22T04:53:44.223Z,100099.03
2023-05-22T04:56:13.078Z,100086.91
2023-05-22T04:58:41.410Z,100085.91
2023-05-22T05:01:09.700Z,100096.00
2023-05-22T05:03:41.314Z,100089.00
2023-05-22T05:06:10.206Z,100078.94
2023-05-22T05:08:36.860Z,100086.16
2023-05-22T05:11:03.567Z,100102.81
2023-05-22T05:13:30.570Z,100094.38
2023-05-22T05:15:59.323Z,100086.56
2023-05-22T05:18:26.753Z,100106.09
2023-05-22T05:20:53.768Z,100097.63
2023-05-22T05:23:21.046Z,100109.97
2023-05-22T05:25:47.876Z,100114.84
2023-05-22T05:28:14.607Z,100110.31
2023-05-22T05:30:41.517Z,100109.06
2023-05-22T05:33:08.522Z,100116.00
2023-05-22T05:35:35.678Z,100122.22
2023-05-22T05:38:02.397Z,100122.41
2023-05-22T05:40:30.014Z,100125.63
2023-05-22T05:42:57.124Z,100128.69
2023-05-22T05:45:23.778Z,100128.09
2023-05-22T05:47:50.620Z,100122.47
2023-05-22T05:50:17.349Z,100127.94
2023-05-22T05:52:44.131Z,100130.13
2023-05-22T05:55:11.044Z,100127.47
2023-05-22T05:57:37.826Z,100127.94
2023-05-22T06:00:05.895Z,100130.34
2023-05-22T06:02:32.761Z,100128.47
2023-05-22T06:04:59.557Z,100123.47
2023-05-22T06:07:26.303Z,100120.69
2023-05-22T06:09:53.079Z,100134.13
2023-05-22T06:12:19.724Z,100125.78
2023-05-22T06:14:46.415Z,100125.69
2023-05-22T06:17:13.200Z,100125.41
2023-05-22T06:19:39.948Z,100116.88
2023-05-22T06:22:07.983Z,100120.38
2023-05-22T06:24:34.663Z,100123.97
2023-05-22T06:27:02.521Z,100124.16
2023-05-22T06:29:29.309Z,100131.91
2023-05-22T06:31:56.566Z,100125.91
2023-05-22T06:34:23.593Z,100127.84
2023-05-22T06:36:53.054Z,100123.78
2023-05-22T06:39:19.760Z,100128.09
2023-05-22T06:41:48.715Z,100129.81
2023-05-22T06:44:15.492Z,100132.84
2023-05-22T06:46:42.243Z,100129.78
2023-05-22T06:49:09.008Z,100124.94
2023-05-22T06:51:35.682Z,100134.22
2023-05-22T06:54:04.463Z,100129.41
2023-05-22T06:56:32.649Z,100131.41
2023-05-22T06:58:59.329Z,100133.84
2023-05-22T07:01:26.098Z,100129.34
2023-05-22T07:03:52.937Z,100138.91
2023-05-22T07:06:19.907Z,100136.03
2023-05-22T07:08:46.606Z,100129.41
2023-05-22T07:11:13.253Z,100135.19
2023-05-22T07:13:39.882Z,100133.13
2023-05-22T07:16:07.221Z,100138.47
2023-05-22T07:18:34.100Z,100135.53
2023-05-22T07:21:01.697Z,100137.31
2023-05-22T07:23:28.558Z,100128.75
2023-05-22T07:25:55.211Z,100138.66
2023-05-22T07:28:21.988Z,100143.78
2023-05-22T07:30:48.672Z,100134.13
2023-05-22T07:33:15.320Z,100133.06
2023-05-22T07:35:42.131Z,100134.63
2023-05-22T07:38:08.897Z,100131.72
2023-05-22T07:40:35.655Z,100134.97
2023-05-22T07:43:02.337Z,100130.22
2023-05-22T07:45:29.109Z,100130.91
2023-05-22T07:47:56.910Z,100126.22
2023-05-22T07:50:26.652Z,100124.19
2023-05-22T07:52:53.547Z,100135.28
2023-05-22T07:55:20.229Z,100128.09
2023-05-22T07:57:47.497Z,100130.03
2023-05-22T08:00:14.830Z,100129.25
2023-05-22T08:02:41.813Z,100127.50
2023-05-22T08:05:09.805Z,100132.84
2023-05-22T08:07:37.005Z,100125.41
2023-05-22T08:10:07.944Z,100126.94
2023-05-22T08:12:34.738Z,100130.38
2023-05-22T08:15:01.510Z,100131.53
2023-05-22T08:17:28.200Z,100124.88
2023-05-22T08:19:56.120Z,100128.44
2023-05-22T08:22:22.925Z,100129.00
2023-05-22T08:24:49.561Z,100129.97
2023-05-22T08:27:16.236Z,100128.78
2023-05-22T08:29:42.922Z,100123.22
2023-05-22T08:32:09.700Z,100122.41
2023-05-22T08:34:36.521Z,100120.34
2023-05-22T08:37:03.428Z,100119.81
2023-05-22T08:39:31.388Z,100107.59
2023-05-22T08:41:59.417Z,100113.38
2023-05-22T08:44:26.146Z,100112.56
2023-05-22T08:46:56.577Z,100107.00
2023-05-22T08:49:24.501Z,100114.31
2023-05-22T08:51:56.674Z,100112.41
2023-05-22T08:54:26.563Z,100110.25
2023-05-22T08:56:57.279Z,100101.75
2023-05-22T08:59:25.082Z,100108.47
2023-05-22T09:01:53.579Z,100101.47
2023-05-22T09:04:23.795Z,100112.16
2023-05-22T09:06:52.215Z,100107.31
2023-05-22T09:09:19.158Z,100105.47
2023-05-22T09:11:46.232Z,100105.03
2023-05-22T09:14:14.081Z,100098.97
2023-05-22T09:16:49.017Z,100099.78
2023-05-22T09:19:16.308Z,100097.81
2023-05-22T09:21:44.630Z,100097.63
2023-05-22T09:24:11.891Z,100099.72
2023-05-22T09:26:39.458Z,100095.06
2023-05-22T09:29:07.664Z,100099.72
2023-05-22T09:31:44.748Z,100097.00
2023-05-22T09:34:14.336Z,100100.84
2023-05-22T09:36:44.155Z,100099.34
2023-05-22T09:39:11.378Z,100100.44
2023-05-22T09:41:39.941Z,100098.00
2023-05-22T09:44:16.644Z,100100.44
2023-05-22T09:46:47.470Z,100087.13
2023-05-22T09:49:16.407Z,100084.06
2023-05-22T09:51:47.939Z,100091.16
2023-05-22T09:54:16.169Z,100090.47
2023-05-22T09:56:44.326Z,100092.94
2023-05-22T09:59:13.985Z,100088.88
2023-05-22T10:01:42.651Z,100089.13
2023-05-22T10:04:13.289Z,100088.31
2023-05-22T10:06:40.951Z,100079.34
2023-05-22T10:09:13.326Z,100073.34
2023-05-22T10:11:40.508Z,100076.47
2023-05-22T10:14:09.027Z,100073.53
2023-05-22T10:16:38.443Z,100074.84
2023-05-22T10:19:06.917Z,100069.44
2023-05-22T10:21:36.899Z,100076.44
2023-05-22T10:24:03.940Z,100071.75
2023-05-22T10:26:31.714Z,100060.66
2023-05-22T10:29:05.327Z,100060.03
2023-05-22T10:32:00.030Z,100070.78
2023-05-22T10:34:34.885Z,100062.47
2023-05-22T10:37:25.973Z,100059.69
2023-05-22T10:40:04.923Z,100057.50
2023-05-22T10:42:32.540Z,100057.31
2023-05-22T10:45:04.322Z,100055.13
2023-05-22T10:47:34.273Z,100060.78
2023-05-22T10:50:12.339Z,100050.53
2023-05-22T10:52:40.552Z,100050.84
2023-05-22T10:55:11.953Z,100044.56
2023-05-22T10:57:39.780Z,100042.75
2023-05-22T11:00:15.808Z,100039.91
2023-05-22T11:02:45.291Z,100035.50
2023-05-22T11:05:22.020Z,100028.25
2023-05-22T11:07:50.145Z,100027.97
2023-05-22T11:10:27.348Z,100024.19
2023-05-22T11:13:13.655Z,100016.41
2023-05-22T11:15:45.436Z,100017.81
2023-05-22T11:18:12.972Z,100016.59
2023-05-22T11:20:40.369Z,100015.09
2023-05-22T11:23:08.440Z,100009.41
2023-05-22T11:25:37.809Z,100006.28
2023-05-22T11:28:06.717Z,100001.81
2023-05-22T11:30:34.452Z,100000.09
2023-05-22T11:33:02.368Z,100002.78
2023-05-22T11:35:29.211Z,99998.34
2023-05-22T11:37:56.526Z,99999.38
2023-05-22T11:40:26.097Z,99996.13
2023-05-22T11:42:53.814Z,99982.13
2023-05-22T11:45:21.441Z,99987.84
2023-05-22T11:47:48.892Z,99982.31
2023-05-22T11:50:22.770Z,99981.97
2023-05-22T11:52:54.006Z,99988.31
2023-05-22T11:55:20.797Z,99982.16
2023-05-22T11:57:48.102Z,99984.88
2023-05-22T12:00:15.421Z,99988.97
2023-05-22T12:02:47.734Z,99987.88
2023-05-22T12:05:16.076Z,99992.97
2023-05-22T12:07:43.376Z,100003.91
2023-05-22T12:10:11.211Z,99997.66
2023-05-22T12:12:38.791Z,99988.97
2023-05-22T12:15:07.164Z,99980.31
2023-05-22T12:17:36.021Z,99990.63
2023-05-22T12:20:04.134Z,99980.84
2023-05-22T12:22:30.941Z,99978.91
2023-05-22T12:24:57.645Z,99974.50
2023-05-22T12:27:24.456Z,99969.03
2023-05-22T12:29:52.930Z,99964.16
2023-05-22T12:32:22.076Z,99965.69
2023-05-22T12:34:50.418Z,99967.69
2023-05-22T12:37:28.354Z,99961.44
2023-05-22T12:39:59.936Z,99951.97
2023-05-22T12:42:27.565Z,99942.75
2023-05-22T12:44:56.541Z,99943.16
2023-05-22T12:47:24.591Z,99946.66
2023-05-22T12:49:51.692Z,99952.22
2023-05-22T12:52:18.698Z,99956.09
2023-05-22T12:54:45.492Z,99944.81
2023-05-22T12:57:17.180Z,99952.81
2023-05-22T12:59:44.327Z,99956.13
2023-05-22T13:02:11.049Z,99946.88
2023-05-22T13:04:37.763Z,99954.50
2023-05-22T13:07:13.740Z,99962.91
2023-05-22T13:09:40.373Z,99957.41
2023-05-22T13:12:07.758Z,99961.63
2023-05-22T13:14:34.528Z,99967.00
2023-05-22T13:17:01.311Z,99962.09
2023-05-22T13:19:28.043Z,99959.72
2023-05-22T13:21:54.841Z,99963.88
2023-05-22T13:24:22.588Z,99950.19
2023-05-22T13:26:49.211Z,99942.00
2023-05-22T13:29:15.886Z,99934.47
2023-05-22T13:31:42.608Z,99925.94
2023-05-22T13:34:09.655Z,99927.91
2023-05-22T13:36:36.292Z,99923.06
2023-05-22T13:39:03.083Z,99918.28
2023-05-22T13:41:29.843Z,99920.84
2023-05-22T13:43:56.644Z,99912.22
2023-05-22T13:46:23.443Z,99918.41
2023-05-22T13:48:50.176Z,99919.22
2023-05-22T13:51:17.277Z,99913.81
2023-05-22T13:53:44.021Z,99917.44
2023-05-22T13:56:10.763Z,99914.25
2023-05-22T13:58:37.410Z,99917.38
2023-05-22T14:01:04.140Z,99912.59
2023-05-22T14:03:30.900Z,99906.66
2023-05-22T14:05:57.705Z,99902.81
2023-05-22T14:08:24.722Z,99894.66
2023-05-22T14:10:51.420Z,99888.66
2023-05-22T14:13:18.168Z,99891.25
2023-05-22T14:15:47.052Z,99886.66
2023-05-22T14:18:16.432Z,99889.22
2023-05-22T14:20:43.697Z,99886.09
2023-05-22T14:23:10.559Z,99885.97
2023-05-22T14:25:37.263Z,99880.59
2023-05-22T14:28:04.009Z,99884.25
2023-05-22T14:30:31.026Z,99876.53
2023-05-22T14:32:57.897Z,99874.06
2023-05-22T14:35:24.726Z,99873.72
2023-05-22T14:37:51.573Z,99868.38
2023-05-22T14:40:18.543Z,99867.53
2023-05-22T14:42:45.762Z,99866.72
2023-05-22T14:45:12.723Z,99869.25
2023-05-22T14:47:40.901Z,99873.13
2023-05-22T14:50:18.890Z,99866.16
2023-05-22T14:52:47.517Z,99868.78
2023-05-22T14:55:17.907Z,99864.41
2023-05-22T14:57:45.161Z,99877.34
2023-05-22T15:00:12.824Z,99875.44
2023-05-22T15:02:41.138Z,99870.47
2023-05-22T15:05:08.573Z,99881.50
2023-05-22T15:10:07.501Z,99877.25
2023-05-22T15:12:34.217Z,99873.25
2023-05-22T15:15:01.654Z,99878.22
2023-05-22T15:17:28.569Z,99873.94
2023-05-22T15:19:55.500Z,99874.19
2023-05-22T15:22:22.210Z,99875.69
2023-05-22T15:24:49.058Z,99875.75
2023-05-22T15:27:17.377Z,99876.69
2023-05-22T15:29:44.167Z,99881.34
2023-05-22T15:32:11.224Z,99872.69
2023-05-22T15:34:37.999Z,99872.19
2023-05-22T15:37:04.885Z,99872.41
2023-05-22T15:39:31.599Z,99869.78
2023-05-22T15:42:06.017Z,99870.88
2023-05-22T15:44:33.684Z,99862.50
2023-05-22T15:47:00.458Z,99866.59
2023-05-22T15:49:29.330Z,99867.69
2023-05-22T15:51:58.413Z,99861.78
2023-05-22T15:54:25.183Z,99869.88
2023-05-22T15:56:51.802Z,99867.72
2023-05-22T15:59:18.525Z,99873.97
2023-05-22T16:01:45.323Z,99865.78
2023-05-22T16:04:12.217Z,99875.84
2023-05-22T16:06:41.046Z,99881.78
2023-05-22T16:09:08.108Z,99876.91
2023-05-22T16:11:34.935Z,99877.41
2023-05-22T16:14:01.612Z,99877.91
2023-05-22T16:16:28.351Z,99872.47
2023-05-22T16:18:55.227Z,99873.50
2023-05-22T16:21:22.147Z,99872.38
2023-05-22T16:23:48.824Z,99876.16
2023-05-22T16:26:15.630Z,99875.00
2023-05-22T16:28:42.395Z,99868.81
2023-05-22T16:31:09.180Z,99875.00
2023-05-22T16:33:37.564Z,99870.09
2023-05-22T16:36:04.861Z,99869.63
2023-05-22T16:38:31.594Z,99868.28
2023-05-22T16:40:58.858Z,99866.38
2023-05-22T16:43:25.720Z,99866.34
2023-05-22T16:45:52.367Z,99857.16
2023-05-22T16:48:19.160Z,99862.56
2023-05-22T16:50:46.931Z,99864.75
2023-05-22T16:53:16.759Z,99862.50
2023-05-22T16:55:43.916Z,99861.16
2023-05-22T16:58:11.723Z,99856.03
2023-05-22T17:00:40.125Z,99855.50
2023-05-22T17:03:08.237Z,99855.00
2023-05-22T17:05:35.901Z,99856.78
2023-05-22T17:08:03.167Z,99857.28
2023-05-22T17:10:29.982Z,99856.16
2023-05-22T17:12:56.871Z,99855.28
2023-05-22T17:15:23.663Z,99858.97
2023-05-22T17:17:50.841Z,99857.91
2023-05-22T17:20:17.823Z,99870.66
2023-05-22T17:22:44.567Z,99863.59
2023-05-22T17:25:11.249Z,99867.34
2023-05-22T17:27:39.017Z,99871.31
2023-05-22T17:30:07.594Z,99871.41
2023-05-22T17:32:35.176Z,99863.19
2023-05-22T17:35:02.343Z,99876.00
2023-05-22T17:37:29.051Z,99882.22
2023-05-22T17:39:55.765Z,99886.75
2023-05-22T17:42:23.072Z,99890.88
2023-05-22T17:44:49.890Z,99890.22
2023-05-22T17:47:16.737Z,99889.34
2023-05-22T17:49:43.563Z,99890.03
2023-05-22T17:52:11.118Z,99888.63
2023-05-22T17:54:37.846Z,99884.34
2023-05-22T17:57:04.602Z,99883.38
2023-05-22T17:59:32.664Z,99892.19
2023-05-22T18:01:59.477Z,99896.97
2023-05-22T18:04:26.525Z,99898.94
2023-05-22T18:06:53.201Z,99902.06
2023-05-22T18:09:19.868Z,99897.97
2023-05-22T18:11:46.620Z,99912.41
2023-05-22T18:14:13.323Z,99911.44
2023-05-22T18:16:39.993Z,99912.38
2023-05-22T18:19:06.739Z,99916.47
2023-05-22T18:21:33.490Z,99932.94
2023-05-22T18:24:00.217Z,99925.94
2023-05-22T18:26:27.153Z,99960.13
2023-05-22T18:28:53.902Z,99957.41
2023-05-22T18:31:20.763Z,99971.25
2023-05-22T18:33:47.484Z,99973.56
2023-05-22T18:36:14.256Z,99985.13
2023-05-22T18:38:41.126Z,99981.44
2023-05-22T18:41:07.875Z,99982.53
2023-05-22T18:43:34.638Z,99980.06
2023-05-22T18:46:01.302Z,99985.47
2023-05-22T18:48:28.537Z,99986.22
2023-05-22T18:50:57.478Z,99987.06
2023-05-22T18:53:27.627Z,99984.84
2023-05-22T18:55:54.391Z,99989.63
2023-05-22T18:58:21.673Z,99999.47
2023-05-22T19:00:49.775Z,100001.59
2023-05-22T19:03:16.438Z,99999.13
2023-05-22T19:05:43.178Z,100004.91
2023-05-22T19:10:57.567Z,100002.34
2023-05-22T19:13:24.257Z,100005.56
2023-05-22T19:15:51.007Z,100000.44
2023-05-22T19:18:18.384Z,100003.91
2023-05-22T19:20:45.070Z,99996.41
2023-05-22T19:23:13.644Z,100001.53
2023-05-22T19:25:40.312Z,99994.63
2023-05-22T19:28:07.257Z,100000.91
2023-05-22T19:30:33.990Z,99999.03
2023-05-22T19:33:01.923Z,100003.66
2023-05-22T19:35:28.581Z,100006.59
2023-05-22T19:37:55.296Z,100000.72
2023-05-22T19:40:22.039Z,100004.16
2023-05-22T19:42:48.858Z,100002.03
2023-05-22T19:45:15.561Z,99995.13
2023-05-22T19:47:42.360Z,99996.78
2023-05-22T19:50:09.525Z,99983.25
2023-05-22T19:52:36.280Z,99986.78
2023-05-22T19:55:03.018Z,99986.22
2023-05-22T19:57:29.733Z,99985.16
2023-05-22T19:59:56.474Z,99981.81
2023-05-22T20:02:23.234Z,99990.09
2023-05-22T20:04:49.976Z,99981.56
2023-05-22T20:07:16.857Z,99992.72
2023-05-22T20:09:43.488Z,99986.44
2023-05-22T20:12:10.526Z,99992.44
2023-05-22T20:14:38.360Z,99988.53
2023-05-22T20:17:05.585Z,99977.63
2023-05-22T20:19:34.514Z,99978.53
2023-05-22T20:22:02.169Z,99979.97
2023-05-22T20:24:29.687Z,99976.09
2023-05-22T20:26:56.905Z,99975.53
2023-05-22T20:29:23.870Z,99971.13
2023-05-22T20:31:54.691Z,99977.25
2023-05-22T20:34:22.298Z,99976.56
2023-05-22T20:36:50.487Z,99973.16
2023-05-22T20:39:18.154Z,99974.44
2023-05-22T20:41:45.571Z,99963.44
2023-05-22T20:44:12.309Z,99964.38
2023-05-22T20:46:39.011Z,99965.63
2023-05-22T20:49:06.161Z,99967.59
2023-05-22T20:51:33.635Z,99962.09
2023-05-22T20:54:00.434Z,99961.72
2023-05-22T20:56:27.531Z,99965.47
2023-05-22T20:58:54.849Z,99961.03
2023-05-22T21:01:21.892Z,99958.75
2023-05-22T21:03:51.461Z,99956.72
2023-05-22T21:06:19.047Z,99963.06
2023-05-22T21:08:45.704Z,99959.19
2023-05-22T21:11:12.386Z,99955.06
2023-05-22T21:13:40.153Z,99958.78
2023-05-22T21:16:08.252Z,99964.94
2023-05-22T21:18:35.117Z,99963.91
2023-05-22T21:21:01.852Z,99964.53
2023-05-22T21:23:28.555Z,99976.03
2023-05-22T21:25:55.172Z,99977.22
2023-05-22T21:28:21.905Z,99972.91
2023-05-22T21:30:48.516Z,99973.34
2023-05-22T21:33:15.275Z,99976.03
2023-05-22T21:35:42.073Z,99966.97
2023-05-22T21:38:08.734Z,99976.41
2023-05-22T21:40:35.455Z,99978.66
2023-05-22T21:43:02.189Z,99971.06
2023-05-22T21:45:28.826Z,99966.75
2023-05-22T21:47:55.568Z,99971.88
2023-05-22T21:50:22.276Z,99968.59
2023-05-22T21:52:48.918Z,99969.19
2023-05-22T21:55:15.760Z,99963.00
2023-05-22T21:57:42.443Z,99969.78
2023-05-22T22:00:09.733Z,99966.31
2023-05-22T22:02:36.432Z,99962.81
2023-05-22T22:05:03.160Z,99967.09
2023-05-22T22:07:29.799Z,99964.06
2023-05-22T22:09:56.464Z,99965.06
2023-05-22T22:12:23.114Z,99964.06
2023-05-22T22:14:49.766Z,99960.00
2023-05-22T22:17:23.676Z,99960.59
2023-05-22T22:19:53.485Z,99959.50
2023-05-22T22:22:22.723Z,99962.78
2023-05-22T22:24:49.503Z,99960.13
2023-05-22T22:27:16.505Z,99965.16
2023-05-22T22:29:43.780Z,99956.59
2023-05-22T22:32:10.690Z,99960.28
2023-05-22T22:34:37.705Z,99961.88
2023-05-22T22:37:05.738Z,99957.84
2023-05-22T22:39:32.388Z,99952.72
2023-05-22T22:42:05.101Z,99956.88
2023-05-22T22:44:32.493Z,99949.63
2023-05-22T22:46:59.253Z,99948.78
2023-05-22T22:49:25.893Z,99949.13
2023-05-22T22:51:52.668Z,99954.47
2023-05-22T22:54:19.474Z,99956.00
2023-05-22T22:56:47.378Z,99952.94
2023-05-22T22:59:14.154Z,99956.16
2023-05-22T23:01:40.863Z,99958.59
2023-05-22T23:04:07.734Z,99961.34
2023-05-22T23:06:34.696Z,99956.00
2023-05-22T23:09:03.720Z,99959.94
2023-05-22T23:11:39.431Z,99956.25
2023-05-22T23:14:07.833Z,99953.63
2023-05-22T23:16:41.083Z,99952.78
2023-05-22T23:19:09.092Z,99951.34
2023-05-22T23:21:37.929Z,99949.50
2023-05-22T23:24:05.253Z,99957.53
2023-05-22T23:26:32.924Z,99951.38
2023-05-22T23:29:00.261Z,99954.03
2023-05-22T23:31:30.671Z,99953.44
2023-05-22T23:33:57.992Z,99952.00
2023-05-22T23:36:25.363Z,99953.84
2023-05-22T23:38:52.079Z,99961.03
2023-05-22T23:41:19.101Z,99953.00
2023-05-22T23:43:46.224Z,99947.47
2023-05-22T23:46:14.257Z,99944.34
2023-05-22T23:48:41.942Z,99952.38
2023-05-22T23:51:14.395Z,99953.63
2023-05-22T23:53:41.943Z,99943.97
2023-05-22T23:56:09.495Z,99946.84
2023-05-22T23:58:37.755Z,99952.16
